createdAt,value
2022-12-12T00:00:26.648Z,63.28
2022-12-12T00:02:58.275Z,63.10
2022-12-12T00:05:28.498Z,63.24
2022-12-12T00:07:58.880Z,62.78
2022-12-12T00:10:28.566Z,63.07
2022-12-12T00:12:58.157Z,62.72
2022-12-12T00:15:29.061Z,62.12
2022-12-12T00:17:58.814Z,61.94
2022-12-12T00:20:28.470Z,62.23
2022-12-12T00:22:58.058Z,62.75
2022-12-12T00:25:27.658Z,62.43
2022-12-12T00:27:57.251Z,62.37
2022-12-12T00:30:26.957Z,62.65
2022-12-12T00:32:56.510Z,62.88
2022-12-12T00:35:26.423Z,63.20
2022-12-12T00:37:56.025Z,62.89
2022-12-12T00:40:25.686Z,62.49
2022-12-12T00:42:55.301Z,62.78
2022-12-12T00:45:24.586Z,62.70
2022-12-12T00:47:54.501Z,62.73
2022-12-12T00:50:24.045Z,62.90
2022-12-12T00:52:53.747Z,63.05
2022-12-12T00:55:23.406Z,62.99
2022-12-12T00:57:53.299Z,63.09
2022-12-12T01:00:24.006Z,62.69
2022-12-12T01:02:53.886Z,62.83
2022-12-12T01:05:24.331Z,62.99
2022-12-12T01:07:55.150Z,63.09
2022-12-12T01:10:25.113Z,62.64
2022-12-12T01:12:54.830Z,63.15
2022-12-12T01:15:24.390Z,62.54
2022-12-12T01:17:55.025Z,63.14
2022-12-12T01:20:29.070Z,63.43
2022-12-12T01:22:59.260Z,63.55
2022-12-12T01:25:28.732Z,63.31
2022-12-12T01:27:58.223Z,63.11
2022-12-12T01:30:31.026Z,63.46
2022-12-12T01:33:00.685Z,62.86
2022-12-12T01:35:31.966Z,62.97
2022-12-12T01:38:01.999Z,63.32
2022-12-12T01:40:32.970Z,63.36
2022-12-12T01:43:02.529Z,63.25
2022-12-12T01:46:13.683Z,62.75
2022-12-12T01:49:02.129Z,62.25
2022-12-12T01:51:32.623Z,62.73
2022-12-12T01:54:17.243Z,62.91
2022-12-12T01:56:52.347Z,63.05
2022-12-12T01:59:24.057Z,63.51
2022-12-12T02:01:55.320Z,63.91
2022-12-12T02:04:27.137Z,63.73
2022-12-12T02:06:57.889Z,64.60
2022-12-12T02:09:31.035Z,64.77
2022-12-12T02:12:00.795Z,65.10
2022-12-12T02:14:53.403Z,64.70
2022-12-12T02:17:52.699Z,64.84
2022-12-12T02:20:37.069Z,64.78
2022-12-12T02:23:32.511Z,64.93
2022-12-12T02:26:09.416Z,64.43
2022-12-12T02:29:06.716Z,64.28
2022-12-12T02:31:42.364Z,64.16
2022-12-12T02:34:27.846Z,63.90
2022-12-12T02:37:00.928Z,64.21
2022-12-12T02:40:20.921Z,63.70
2022-12-12T02:43:13.833Z,64.53
2022-12-12T02:45:47.127Z,64.46
2022-12-12T02:48:30.737Z,64.61
2022-12-12T02:51:04.372Z,63.99
2022-12-12T02:53:34.765Z,63.11
2022-12-12T02:56:07.648Z,62.43
2022-12-12T02:58:40.466Z,62.17
2022-12-12T03:01:40.937Z,61.33
2022-12-12T03:04:54.500Z,60.82
2022-12-12T03:07:49.277Z,59.80
2022-12-12T03:10:28.085Z,59.82
2022-12-12T03:13:19.767Z,58.92
2022-12-12T03:16:15.949Z,57.96
2022-12-12T03:18:57.436Z,57.49
2022-12-12T03:22:25.710Z,56.96
2022-12-12T03:25:05.550Z,56.58
2022-12-12T03:27:55.902Z,56.11
2022-12-12T03:30:25.905Z,56.09
2022-12-12T03:33:08.585Z,55.80
2022-12-12T03:35:40.174Z,55.34
2022-12-12T03:38:15.723Z,55.60
2022-12-12T03:40:50.532Z,55.58
2022-12-12T03:43:33.632Z,55.16
2022-12-12T03:46:23.704Z,55.04
2022-12-12T03:49:03.051Z,54.75
2022-12-12T03:51:37.965Z,53.77
2022-12-12T03:54:54.994Z,53.08
2022-12-12T03:57:34.377Z,52.43
2022-12-12T04:00:08.940Z,52.63
2022-12-12T04:03:03.336Z,51.96
2022-12-12T04:06:26.728Z,52.33
2022-12-12T04:09:23.299Z,51.50
2022-12-12T04:12:18.065Z,52.40
2022-12-12T04:15:06.046Z,52.89
2022-12-12T04:17:58.662Z,53.28
2022-12-12T04:20:55.359Z,52.87
2022-12-12T04:23:35.911Z,53.66
2022-12-12T04:26:29.721Z,53.42
2022-12-12T04:29:31.451Z,53.46
2022-12-12T04:32:15.513Z,53.17
2022-12-12T04:35:03.461Z,53.36
2022-12-12T04:37:40.596Z,52.68
2022-12-12T04:40:14.570Z,51.70
2022-12-12T04:42:55.108Z,51.57
2022-12-12T04:45:30.522Z,50.95
2022-12-12T04:48:02.728Z,51.09
2022-12-12T04:50:34.676Z,51.17
2022-12-12T04:53:18.411Z,51.39
2022-12-12T04:55:58.148Z,51.65
2022-12-12T04:58:29.111Z,51.10
2022-12-12T05:01:08.864Z,51.38
2022-12-12T05:03:44.941Z,52.10
2022-12-12T05:06:18.103Z,51.52
2022-12-12T05:08:55.004Z,52.22
2022-12-12T05:11:24.897Z,52.66
2022-12-12T05:13:54.714Z,52.63
2022-12-12T05:16:44.872Z,53.00
2022-12-12T05:19:15.146Z,53.12
2022-12-12T05:21:44.872Z,53.02
2022-12-12T05:24:14.481Z,52.69
2022-12-12T05:26:44.380Z,52.85
2022-12-12T05:29:14.882Z,52.94
2022-12-12T05:31:44.693Z,52.84
2022-12-12T05:34:14.016Z,52.86
2022-12-12T05:36:44.369Z,53.09
2022-12-12T05:39:13.932Z,52.88
2022-12-12T05:41:43.916Z,52.18
2022-12-12T05:44:13.283Z,52.01
2022-12-12T05:46:42.971Z,50.72
2022-12-12T05:49:12.615Z,50.37
2022-12-12T05:51:44.323Z,48.96
2022-12-12T05:54:15.329Z,49.71
2022-12-12T05:56:45.307Z,49.52
2022-12-12T05:59:16.223Z,49.09
2022-12-12T06:01:46.466Z,48.91
2022-12-12T06:04:17.087Z,48.83
2022-12-12T06:06:48.315Z,49.43
2022-12-12T06:09:17.967Z,48.36
2022-12-12T06:11:47.650Z,48.32
2022-12-12T06:14:17.858Z,49.23
2022-12-12T06:16:47.505Z,48.74
2022-12-12T06:19:17.306Z,48.14
2022-12-12T06:21:47.873Z,48.90
2022-12-12T06:24:18.340Z,49.80
2022-12-12T06:26:52.428Z,49.33
2022-12-12T06:29:22.585Z,49.71
2022-12-12T06:31:52.323Z,49.32
2022-12-12T06:34:21.977Z,48.66
2022-12-12T06:36:51.774Z,48.90
2022-12-12T06:39:21.518Z,48.14
2022-12-12T06:41:51.174Z,47.79
2022-12-12T06:44:20.802Z,48.23
2022-12-12T06:46:50.450Z,47.85
2022-12-12T06:49:20.509Z,46.39
2022-12-12T06:51:50.341Z,46.69
2022-12-12T06:54:20.894Z,46.09
2022-12-12T06:56:50.764Z,45.23
2022-12-12T06:59:20.927Z,45.61
2022-12-12T07:01:50.855Z,46.13
2022-12-12T07:04:21.757Z,46.32
2022-12-12T07:06:51.802Z,45.15
2022-12-12T07:09:22.151Z,45.84
2022-12-12T07:11:51.886Z,45.92
2022-12-12T07:14:24.557Z,46.46
2022-12-12T07:16:54.248Z,46.20
2022-12-12T07:19:24.448Z,44.99
2022-12-12T07:21:54.210Z,45.08
2022-12-12T07:24:23.813Z,44.03
2022-12-12T07:26:53.933Z,44.91
2022-12-12T07:29:23.715Z,44.05
2022-12-12T07:31:53.060Z,42.04
2022-12-12T07:34:24.730Z,42.70
2022-12-12T07:37:00.791Z,43.18
2022-12-12T07:42:35.754Z,41.30
2022-12-12T07:45:05.824Z,42.35
2022-12-12T07:47:36.253Z,41.48
2022-12-12T07:50:07.812Z,41.11
2022-12-12T07:52:38.545Z,40.87
2022-12-12T07:55:08.834Z,40.81
2022-12-12T07:57:39.305Z,40.76
2022-12-12T08:00:11.923Z,41.21
2022-12-12T08:02:42.684Z,40.48
2022-12-12T08:05:12.948Z,40.05
2022-12-12T08:07:43.764Z,39.78
2022-12-12T08:10:13.449Z,39.54
2022-12-12T08:12:43.020Z,39.48
2022-12-12T08:15:18.564Z,40.06
2022-12-12T08:17:49.047Z,40.44
2022-12-12T08:20:18.926Z,40.17
2022-12-12T08:22:48.558Z,40.41
2022-12-12T08:25:18.966Z,39.51
2022-12-12T08:27:48.640Z,39.58
2022-12-12T08:30:18.048Z,40.35
2022-12-12T08:32:47.950Z,40.03
2022-12-12T08:35:17.857Z,39.98
2022-12-12T08:37:47.611Z,39.43
2022-12-12T08:40:17.595Z,39.89
2022-12-12T08:42:47.697Z,39.99
2022-12-12T08:45:18.151Z,40.46
2022-12-12T08:47:48.043Z,40.25
2022-12-12T08:50:18.628Z,40.44
2022-12-12T08:52:48.316Z,39.92
2022-12-12T08:55:19.092Z,40.59
2022-12-12T08:57:49.241Z,40.10
2022-12-12T09:00:19.509Z,39.85
2022-12-12T09:02:49.356Z,39.52
2022-12-12T09:05:19.145Z,40.16
2022-12-12T09:07:49.124Z,40.08
2022-12-12T09:10:19.592Z,39.87
2022-12-12T09:12:49.747Z,39.83
2022-12-12T09:15:20.026Z,40.11
2022-12-12T09:17:49.863Z,39.56
2022-12-12T09:20:19.942Z,38.88
2022-12-12T09:22:49.830Z,37.62
2022-12-12T09:25:20.357Z,36.86
2022-12-12T09:27:50.941Z,36.65
2022-12-12T09:30:20.789Z,37.02
2022-12-12T09:32:51.133Z,34.65
2022-12-12T09:35:20.943Z,34.27
2022-12-12T09:37:50.853Z,34.39
2022-12-12T09:40:27.199Z,33.83
2022-12-12T09:42:57.664Z,35.26
2022-12-12T09:45:28.770Z,35.87
2022-12-12T09:48:04.324Z,35.60
2022-12-12T09:50:37.093Z,35.90
2022-12-12T09:53:15.399Z,36.90
2022-12-12T09:56:23.342Z,35.52
2022-12-12T09:58:57.268Z,36.16
2022-12-12T10:01:47.439Z,36.83
2022-12-12T10:04:41.881Z,35.91
2022-12-12T10:07:16.171Z,36.26
2022-12-12T10:09:53.824Z,35.31
2022-12-12T10:12:24.689Z,35.46
2022-12-12T10:15:03.347Z,36.31
2022-12-12T10:17:37.720Z,36.40
2022-12-12T10:20:30.468Z,36.56
2022-12-12T10:23:06.748Z,37.38
2022-12-12T10:25:53.846Z,37.94
2022-12-12T10:28:26.790Z,37.79
2022-12-12T10:31:15.123Z,37.25
2022-12-12T10:33:44.908Z,37.28
2022-12-12T10:36:24.574Z,37.16
2022-12-12T10:38:54.396Z,37.61
2022-12-12T10:41:41.936Z,37.46
2022-12-12T10:44:47.001Z,38.18
2022-12-12T10:47:17.676Z,37.60
2022-12-12T10:49:47.122Z,37.71
2022-12-12T10:52:23.805Z,38.04
2022-12-12T10:54:59.569Z,38.52
2022-12-12T10:57:35.795Z,38.67
2022-12-12T11:00:20.075Z,38.67
2022-12-12T11:02:50.559Z,38.13
2022-12-12T11:05:36.908Z,38.51
2022-12-12T11:08:31.562Z,38.53
2022-12-12T11:11:06.898Z,38.98
2022-12-12T11:13:48.820Z,39.11
2022-12-12T11:16:30.178Z,39.44
2022-12-12T11:19:09.234Z,39.62
2022-12-12T11:21:40.583Z,39.80
2022-12-12T11:24:16.180Z,39.74
2022-12-12T11:27:07.852Z,40.06
2022-12-12T11:29:51.826Z,40.15
2022-12-12T11:32:27.507Z,40.30
2022-12-12T11:35:22.932Z,40.35
2022-12-12T11:38:18.871Z,40.97
2022-12-12T11:41:10.979Z,41.43
2022-12-12T11:43:51.179Z,41.69
2022-12-12T11:46:26.083Z,41.86
2022-12-12T11:48:55.755Z,42.50
2022-12-12T11:51:39.617Z,42.92
2022-12-12T11:54:14.797Z,43.50
2022-12-12T11:56:52.335Z,43.79
2022-12-12T11:59:46.367Z,44.14
2022-12-12T12:02:51.789Z,44.36
2022-12-12T12:05:33.317Z,44.84
2022-12-12T12:08:32.974Z,44.50
2022-12-12T12:11:03.028Z,45.01
2022-12-12T12:13:53.069Z,44.93
2022-12-12T12:16:50.371Z,45.24
2022-12-12T12:19:49.038Z,45.49
2022-12-12T12:22:27.475Z,46.02
2022-12-12T12:25:09.359Z,46.61
2022-12-12T12:28:05.273Z,46.58
2022-12-12T12:31:10.560Z,46.54
2022-12-12T12:33:55.933Z,46.47
2022-12-12T12:36:41.642Z,47.18
2022-12-12T12:39:30.067Z,47.27
2022-12-12T12:42:11.222Z,47.74
2022-12-12T12:44:56.999Z,48.06
2022-12-12T12:47:29.896Z,48.60
2022-12-12T12:50:30.344Z,48.64
2022-12-12T12:53:18.567Z,48.82
2022-12-12T12:55:52.557Z,48.26
2022-12-12T12:58:32.770Z,48.32
2022-12-12T13:01:08.299Z,48.24
2022-12-12T13:03:49.699Z,48.18
2022-12-12T13:06:45.960Z,48.16
2022-12-12T13:09:37.342Z,48.31
2022-12-12T13:12:45.225Z,48.38
2022-12-12T13:15:42.466Z,48.76
2022-12-12T13:18:18.055Z,48.50
2022-12-12T13:21:22.141Z,48.58
2022-12-12T13:24:19.222Z,48.97
2022-12-12T13:27:24.078Z,48.50
2022-12-12T13:30:08.356Z,48.93
2022-12-12T13:32:55.216Z,49.11
2022-12-12T13:35:35.219Z,49.30
2022-12-12T13:38:06.355Z,49.60
2022-12-12T13:40:44.822Z,49.68
2022-12-12T13:43:47.945Z,49.38
2022-12-12T13:46:21.765Z,49.97
2022-12-12T13:49:15.595Z,49.76
2022-12-12T13:51:46.901Z,50.08
2022-12-12T13:54:16.813Z,50.18
2022-12-12T13:57:08.250Z,50.08
2022-12-12T13:59:57.840Z,50.43
2022-12-12T14:02:34.304Z,50.56
2022-12-12T14:05:11.919Z,50.29
2022-12-12T14:07:53.688Z,51.10
2022-12-12T14:10:41.135Z,51.00
2022-12-12T14:13:29.398Z,50.74
2022-12-12T14:16:16.923Z,50.82
2022-12-12T14:18:52.811Z,51.17
2022-12-12T14:21:37.256Z,51.27
2022-12-12T14:24:32.542Z,51.09
2022-12-12T14:27:07.138Z,51.44
2022-12-12T14:29:45.021Z,51.42
2022-12-12T14:32:17.507Z,51.45
2022-12-12T14:35:11.469Z,51.21
2022-12-12T14:37:53.236Z,51.65
2022-12-12T14:40:40.964Z,51.34
2022-12-12T14:43:23.669Z,51.23
2022-12-12T14:45:53.461Z,51.21
2022-12-12T14:48:34.379Z,51.21
2022-12-12T14:51:30.170Z,50.86
2022-12-12T14:54:01.846Z,50.80
2022-12-12T14:56:52.581Z,50.96
2022-12-12T14:59:25.067Z,50.98
2022-12-12T15:01:58.487Z,51.31
2022-12-12T15:04:30.149Z,51.69
2022-12-12T15:07:01.337Z,51.65
2022-12-12T15:09:39.913Z,51.16
2022-12-12T15:12:12.784Z,51.11
2022-12-12T15:15:02.771Z,50.82
2022-12-12T15:17:38.189Z,50.62
2022-12-12T15:20:16.821Z,50.61
2022-12-12T15:23:03.674Z,50.57
2022-12-12T15:25:56.907Z,50.72
2022-12-12T15:28:27.888Z,51.25
2022-12-12T15:30:58.264Z,51.51
2022-12-12T15:33:30.031Z,51.73
2022-12-12T15:36:08.409Z,52.42
2022-12-12T15:38:39.289Z,52.19
2022-12-12T15:41:13.773Z,52.21
2022-12-12T15:43:45.908Z,52.75
2022-12-12T15:46:18.564Z,52.61
2022-12-12T15:48:51.131Z,53.36
2022-12-12T15:51:25.334Z,53.24
2022-12-12T15:53:57.991Z,52.85
2022-12-12T15:56:32.253Z,52.64
2022-12-12T15:59:11.099Z,52.94
2022-12-12T16:01:41.557Z,52.55
2022-12-12T16:04:11.550Z,52.68
2022-12-12T16:06:47.704Z,52.43
2022-12-12T16:09:26.597Z,52.84
2022-12-12T16:11:58.449Z,52.63
2022-12-12T16:14:42.073Z,53.06
2022-12-12T16:17:26.620Z,52.98
2022-12-12T16:20:01.764Z,53.35
2022-12-12T16:22:43.940Z,53.20
2022-12-12T16:25:28.058Z,52.80
2022-12-12T16:28:07.252Z,52.10
2022-12-12T16:30:39.430Z,51.86
2022-12-12T16:33:24.285Z,51.35
2022-12-12T16:35:54.869Z,51.43
2022-12-12T16:38:25.555Z,51.64
2022-12-12T16:40:57.117Z,51.43
2022-12-12T16:43:30.570Z,51.24
2022-12-12T16:46:02.041Z,51.21
2022-12-12T16:48:43.275Z,51.06
2022-12-12T16:51:20.210Z,51.04
2022-12-12T16:53:50.638Z,51.05
2022-12-12T16:56:22.872Z,51.03
2022-12-12T16:58:54.790Z,50.74
2022-12-12T17:01:28.057Z,49.69
2022-12-12T17:03:59.207Z,49.79
2022-12-12T17:06:30.040Z,49.79
2022-12-12T17:09:00.215Z,49.98
2022-12-12T17:11:30.077Z,50.07
2022-12-12T17:14:00.115Z,49.93
2022-12-12T17:16:29.784Z,49.93
2022-12-12T17:18:59.779Z,49.89
2022-12-12T17:21:29.371Z,49.88
2022-12-12T17:23:59.131Z,49.80
2022-12-12T17:26:29.064Z,50.05
2022-12-12T17:28:58.736Z,50.41
2022-12-12T17:31:28.354Z,50.23
2022-12-12T17:33:58.239Z,50.15
2022-12-12T17:36:27.880Z,50.14
2022-12-12T17:38:59.031Z,49.89
2022-12-12T17:41:29.315Z,50.24
2022-12-12T17:44:01.212Z,50.27
2022-12-12T17:46:31.693Z,50.18
2022-12-12T17:49:03.395Z,49.79
2022-12-12T17:51:34.071Z,49.90
2022-12-12T17:54:04.762Z,49.87
2022-12-12T17:56:35.407Z,50.26
2022-12-12T17:59:08.378Z,50.33
2022-12-12T18:01:39.494Z,50.63
2022-12-12T18:04:10.179Z,50.63
2022-12-12T18:06:40.872Z,50.62
2022-12-12T18:09:10.669Z,50.53
2022-12-12T18:11:43.295Z,50.60
2022-12-12T18:14:20.247Z,50.76
2022-12-12T18:16:52.576Z,50.79
2022-12-12T18:19:26.986Z,50.92
2022-12-12T18:22:01.201Z,51.19
2022-12-12T18:24:33.696Z,51.29
2022-12-12T18:27:04.995Z,51.00
2022-12-12T18:29:34.751Z,51.41
2022-12-12T18:32:06.105Z,51.01
2022-12-12T18:34:35.934Z,51.29
2022-12-12T18:37:05.308Z,50.91
2022-12-12T18:39:35.157Z,51.21
2022-12-12T18:42:04.671Z,50.91
2022-12-12T18:44:34.645Z,50.84
2022-12-12T18:47:04.308Z,50.88
2022-12-12T18:49:33.617Z,51.05
2022-12-12T18:52:05.833Z,51.38
2022-12-12T18:54:35.518Z,51.49
2022-12-12T18:57:04.974Z,51.31
2022-12-12T18:59:35.000Z,51.71
2022-12-12T19:02:04.882Z,51.37
2022-12-12T19:04:34.947Z,51.55
2022-12-12T19:07:04.569Z,51.44
2022-12-12T19:09:34.210Z,51.81
2022-12-12T19:12:04.088Z,51.58
2022-12-12T19:14:59.856Z,51.44
2022-12-12T19:17:26.419Z,51.71
2022-12-12T19:19:56.444Z,51.53
2022-12-12T19:25:18.599Z,52.01
2022-12-12T19:27:48.799Z,51.94
2022-12-12T19:30:18.899Z,51.99
2022-12-12T19:32:50.270Z,52.25
2022-12-12T19:35:20.006Z,52.42
2022-12-12T19:37:49.709Z,52.41
2022-12-12T19:40:20.033Z,52.80
2022-12-12T19:42:49.904Z,52.84
2022-12-12T19:45:19.643Z,52.74
2022-12-12T19:47:48.946Z,53.53
2022-12-12T19:50:18.835Z,53.37
2022-12-12T19:52:48.369Z,53.49
2022-12-12T19:55:18.016Z,53.59
2022-12-12T19:57:47.670Z,53.70
2022-12-12T20:00:20.872Z,54.10
2022-12-12T20:02:50.802Z,54.00
2022-12-12T20:05:20.731Z,54.38
2022-12-12T20:07:50.624Z,54.63
2022-12-12T20:10:20.211Z,54.75
2022-12-12T20:12:58.267Z,54.80
2022-12-12T20:15:28.651Z,55.03
2022-12-12T20:18:01.268Z,55.16
2022-12-12T20:20:31.100Z,55.27
2022-12-12T20:23:00.879Z,55.29
2022-12-12T20:25:30.716Z,55.49
2022-12-12T20:28:00.606Z,55.53
2022-12-12T20:30:30.305Z,55.88
2022-12-12T20:32:59.969Z,56.30
2022-12-12T20:35:30.450Z,56.50
2022-12-12T20:38:00.207Z,56.38
2022-12-12T20:40:30.318Z,56.58
2022-12-12T20:43:03.417Z,56.86
2022-12-12T20:45:36.793Z,56.93
2022-12-12T20:48:07.840Z,56.86
2022-12-12T20:50:37.721Z,56.91
2022-12-12T20:53:07.400Z,57.17
2022-12-12T20:55:38.368Z,57.17
2022-12-12T20:58:08.098Z,57.27
2022-12-12T21:00:40.188Z,58.05
2022-12-12T21:03:09.881Z,58.45
2022-12-12T21:05:39.902Z,58.41
2022-12-12T21:08:09.616Z,57.95
2022-12-12T21:10:39.018Z,58.03
2022-12-12T21:13:08.805Z,57.68
2022-12-12T21:15:38.880Z,57.53
2022-12-12T21:18:08.881Z,57.51
2022-12-12T21:20:38.555Z,57.55
2022-12-12T21:23:08.209Z,57.48
2022-12-12T21:25:38.346Z,57.78
2022-12-12T21:28:08.576Z,58.32
2022-12-12T21:30:38.365Z,57.84
2022-12-12T21:33:07.998Z,57.83
2022-12-12T21:35:38.711Z,57.97
2022-12-12T21:38:08.605Z,57.71
2022-12-12T21:40:38.637Z,57.29
2022-12-12T21:43:08.262Z,57.38
2022-12-12T21:45:41.308Z,57.31
2022-12-12T21:48:10.979Z,57.13
2022-12-12T21:50:40.372Z,56.99
2022-12-12T21:53:28.533Z,57.06
2022-12-12T21:56:03.906Z,57.32
2022-12-12T21:58:34.835Z,57.41
2022-12-12T22:01:08.989Z,57.21
2022-12-12T22:03:39.471Z,57.39
2022-12-12T22:06:14.796Z,57.44
2022-12-12T22:08:45.322Z,57.54
2022-12-12T22:11:40.485Z,57.60
2022-12-12T22:14:08.059Z,57.50
2022-12-12T22:16:39.070Z,57.87
2022-12-12T22:19:12.878Z,57.97
2022-12-12T22:21:42.499Z,57.65
2022-12-12T22:24:13.153Z,57.71
2022-12-12T22:26:47.178Z,57.58
2022-12-12T22:29:19.966Z,57.63
2022-12-12T22:31:53.365Z,57.87
2022-12-12T22:34:25.184Z,57.64
2022-12-12T22:36:55.396Z,57.02
2022-12-12T22:39:29.808Z,57.35
2022-12-12T22:41:59.476Z,56.93
2022-12-12T22:44:28.955Z,57.02
2022-12-12T22:46:58.636Z,57.45
2022-12-12T22:49:28.823Z,57.48
2022-12-12T22:51:59.600Z,57.48
2022-12-12T22:54:29.377Z,57.49
2022-12-12T22:56:59.358Z,57.36
2022-12-12T22:59:29.186Z,57.16
2022-12-12T23:01:59.137Z,57.38
2022-12-12T23:04:28.747Z,57.46
2022-12-12T23:06:58.907Z,57.39
2022-12-12T23:09:28.542Z,57.22
2022-12-12T23:11:58.044Z,57.08
2022-12-12T23:14:28.540Z,56.98
2022-12-12T23:16:58.342Z,57.35
2022-12-12T23:19:29.806Z,57.47
2022-12-12T23:21:59.700Z,57.63
2022-12-12T23:24:29.138Z,57.19
2022-12-12T23:26:58.736Z,57.33
2022-12-12T23:29:28.772Z,57.32
2022-12-12T23:31:59.714Z,57.39
2022-12-12T23:34:29.499Z,57.30
2022-12-12T23:36:59.738Z,57.16
2022-12-12T23:39:30.014Z,57.10
2022-12-12T23:41:59.902Z,57.62
2022-12-12T23:44:30.234Z,57.34
2022-12-12T23:46:59.595Z,58.06
2022-12-12T23:49:29.250Z,57.92
2022-12-12T23:52:00.670Z,57.87
2022-12-12T23:54:33.208Z,57.86
2022-12-12T23:57:04.058Z,57.75
2022-12-12T23:59:33.732Z,57.79
